Time;durP1;ratioP1;P1;durP2;ratioP2;P2;SDS_P1;SDS_P2;PMS_P1;PMS_P2;Temp;Humidity;BMP_temperature;BMP_pressure;BME280_temperature;BME280_humidity;BME280_pressure;Samples;Min_cycle;Max_cycle;Signal;HPM_P1;HPM_P2
2023/03/25 00:01:57;;;;;;;4.40;1.00;;;;;;;19.30;44.17;100166.69;5041459;28;20036;-72
2023/03/25 00:04:25;;;;;;;2.67;0.98;;;;;;;19.28;44.27;100166.84;5051095;28;20105;-71
2023/03/25 00:06:53;;;;;;;2.67;0.90;;;;;;;19.27;44.36;100164.34;5049931;28;20033;-70
2023/03/25 00:09:19;;;;;;;2.13;0.80;;;;;;;19.24;44.02;100164.63;5051597;28;20033;-70
2023/03/25 00:11:44;;;;;;;4.28;1.30;;;;;;;19.21;44.24;100163.94;5050596;28;20055;-71
2023/03/25 00:14:11;;;;;;;4.15;1.02;;;;;;;19.20;43.97;100164.94;5051209;28;20036;-71
2023/03/25 00:16:36;;;;;;;3.78;1.20;;;;;;;19.19;44.12;100168.53;5051476;28;20029;-72
2023/03/25 00:19:02;;;;;;;4.18;1.10;;;;;;;19.13;44.10;100158.56;5050390;28;20414;-71
2023/03/25 00:21:27;;;;;;;4.45;1.02;;;;;;;19.18;44.06;100166.91;5050802;28;20064;-72
2023/03/25 00:23:52;;;;;;;4.13;1.40;;;;;;;19.18;43.99;100164.25;5050482;28;20037;-72
2023/03/25 00:26:17;;;;;;;3.33;1.33;;;;;;;19.18;43.96;100155.47;5051033;28;20041;-72
2023/03/25 00:28:43;;;;;;;2.92;0.90;;;;;;;19.19;43.78;100152.69;5050564;28;20037;-71
2023/03/25 00:31:13;;;;;;;4.90;0.88;;;;;;;19.14;43.83;100146.22;5051327;28;20056;-71
2023/03/25 00:33:40;;;;;;;5.20;1.25;;;;;;;19.16;43.79;100162.72;5050187;28;20044;-72
2023/03/25 00:36:06;;;;;;;4.05;1.02;;;;;;;19.12;43.86;100146.34;5051527;28;20725;-72
2023/03/25 00:38:34;;;;;;;2.55;0.77;;;;;;;19.13;43.65;100158.56;5049793;28;20033;-72
2023/03/25 00:41:16;;;;;;;3.15;0.85;;;;;;;19.10;43.79;100158.84;5050801;28;20041;-71
2023/03/25 00:43:42;;;;;;;2.75;0.90;;;;;;;19.08;43.99;100144.97;5050571;28;20044;-72
2023/03/25 00:46:07;;;;;;;3.67;1.08;;;;;;;19.09;43.67;100151.06;5050889;28;20048;-70
2023/03/25 00:48:33;;;;;;;4.35;1.02;;;;;;;19.07;43.61;100153.88;5051119;28;20219;-70
2023/03/25 00:51:06;;;;;;;3.67;1.10;;;;;;;19.06;43.78;100141.66;5050421;28;20721;-71
2023/03/25 00:53:31;;;;;;;3.30;0.77;;;;;;;19.06;43.61;100157.50;5050870;28;20040;-70
2023/03/25 00:55:57;;;;;;;3.53;1.17;;;;;;;19.06;43.59;100154.00;5050744;28;20032;-71
2023/03/25 00:58:22;;;;;;;3.22;1.05;;;;;;;19.05;43.68;100149.72;5050684;28;20040;-71
2023/03/25 01:00:48;;;;;;;4.05;1.13;;;;;;;19.04;43.60;100146.22;5050662;28;20791;-71
2023/03/25 01:03:14;;;;;;;2.13;0.80;;;;;;;19.04;43.54;100143.59;5049886;28;20033;-70
2023/03/25 01:05:42;;;;;;;4.25;0.98;;;;;;;19.03;43.53;100147.22;5050958;28;20461;-71
2023/03/25 01:08:07;;;;;;;3.65;0.90;;;;;;;19.00;43.72;100150.16;5050769;28;20032;-71
2023/03/25 01:10:35;;;;;;;4.45;1.00;;;;;;;18.99;43.49;100140.56;5050649;28;20047;-71
2023/03/25 01:13:01;;;;;;;4.80;1.20;;;;;;;18.99;43.39;100149.34;5050707;28;20032;-71
2023/03/25 01:15:26;;;;;;;4.28;0.90;;;;;;;18.96;43.49;100147.00;5049598;28;20037;-71
2023/03/25 01:17:51;;;;;;;4.28;1.15;;;;;;;18.96;43.36;100135.59;5050948;28;20428;-70
2023/03/25 01:20:16;;;;;;;3.70;1.02;;;;;;;18.97;43.37;100142.53;5050004;28;20049;-69
2023/03/25 01:22:42;;;;;;;3.38;1.00;;;;;;;18.97;43.16;100142.53;5051013;28;20033;-70
2023/03/25 01:25:07;;;;;;;3.85;0.98;;;;;;;18.94;43.42;100143.66;5049234;28;20127;-70
2023/03/25 01:27:32;;;;;;;5.53;1.10;;;;;;;18.92;43.61;100140.34;5054105;28;20071;-70
2023/03/25 01:29:58;;;;;;;4.20;1.00;;;;;;;18.94;43.45;100143.66;5054031;28;20048;-71
2023/03/25 01:32:23;;;;;;;2.72;1.00;;;;;;;18.91;43.35;100138.66;5054297;28;20048;-71
2023/03/25 01:34:48;;;;;;;4.07;1.17;;;;;;;18.92;43.59;100142.16;5053551;28;20037;-70
2023/03/25 01:37:14;;;;;;;3.97;0.90;;;;;;;18.91;43.43;100145.75;5054067;28;20044;-70
2023/03/25 01:39:39;;;;;;;3.40;0.85;;;;;;;18.91;43.20;100151.03;5054044;28;20051;-70
2023/03/25 01:42:04;;;;;;;3.70;1.08;;;;;;;18.89;43.10;100153.81;5053970;28;20033;-70
2023/03/25 01:44:30;;;;;;;4.00;1.10;;;;;;;18.89;43.12;100145.09;5053456;28;20044;-71
2023/03/25 01:47:00;;;;;;;3.70;0.90;;;;;;;18.89;43.37;100147.72;5053532;28;20037;-71
2023/03/25 01:49:31;;;;;;;4.03;1.10;;;;;;;18.87;43.08;100141.75;5054325;28;20064;-71
2023/03/25 01:52:01;;;;;;;4.32;0.90;;;;;;;18.84;43.26;100137.59;5053543;28;20036;-70
2023/03/25 01:54:27;;;;;;;1.95;0.80;;;;;;;18.88;43.21;100132.84;5053785;28;20032;-71
2023/03/25 01:56:53;;;;;;;4.93;0.90;;;;;;;18.86;43.14;100143.56;5053933;28;20439;-70
2023/03/25 01:59:23;;;;;;;3.75;1.17;;;;;;;18.84;43.11;100141.06;5053422;28;20054;-71
2023/03/25 02:01:50;;;;;;;3.88;1.10;;;;;;;18.83;43.18;100138.53;5052799;28;20036;-73
2023/03/25 02:04:26;;;;;;;2.72;0.80;;;;;;;18.81;43.14;100138.69;5054319;28;20037;-71
2023/03/25 02:06:52;;;;;;;4.00;1.00;;;;;;;18.82;43.08;100145.63;5053695;28;20032;-72
2023/03/25 02:09:20;;;;;;;2.78;0.98;;;;;;;18.79;43.00;100130.09;5043529;28;20120;-71
2023/03/25 02:11:46;;;;;;;4.10;1.00;;;;;;;18.81;43.11;100133.41;5053094;28;20349;-71
2023/03/25 02:14:14;;;;;;;3.35;1.00;;;;;;;18.81;43.06;100136.03;5053148;28;20494;-72
2023/03/25 02:16:49;;;;;;;4.00;1.13;;;;;;;18.80;43.15;100130.91;5052742;28;20075;-72
2023/03/25 02:19:50;;;;;;;3.33;1.02;;;;;;;18.80;42.98;100121.19;5053201;28;20040;-71
2023/03/25 02:22:24;;;;;;;3.42;0.95;;;;;;;18.81;42.87;100130.75;5052776;28;20059;-73
2023/03/25 02:25:34;;;;;;;3.00;1.02;;;;;;;18.79;43.26;100134.53;5053116;28;20040;-70
2023/03/25 02:28:13;;;;;;;2.60;0.80;;;;;;;18.78;43.25;100130.22;5053254;28;20041;-71
2023/03/25 02:31:13;;;;;;;2.22;0.75;;;;;;;18.78;42.99;100146.06;5053063;28;20504;-70
2023/03/25 02:33:44;;;;;;;4.40;1.00;;;;;;;18.78;42.70;100141.63;5053279;28;20040;-71
2023/03/25 02:36:18;;;;;;;2.60;0.80;;;;;;;18.76;43.08;100146.22;5052201;28;20037;-71
2023/03/25 02:38:44;;;;;;;;;;;;;;;18.80;42.86;100141.47;5054031;28;20090;-71
2023/03/25 02:41:29;;;;;;;3.90;0.82;;;;;;;18.77;42.81;100129.41;5052538;28;19917;-71
2023/03/25 02:44:06;;;;;;;3.10;0.93;;;;;;;18.77;42.80;100137.34;5053836;28;20086;-70
2023/03/25 02:46:35;;;;;;;3.15;0.90;;;;;;;18.73;42.81;100122.75;5053339;28;20041;-70
2023/03/25 02:49:19;;;;;;;3.13;0.77;;;;;;;18.71;43.02;100122.06;5052123;28;20025;-71
2023/03/25 02:52:16;;;;;;;3.17;0.98;;;;;;;18.72;43.06;100142.19;5053530;28;20759;-71
2023/03/25 02:54:44;;;;;;;2.67;0.90;;;;;;;18.71;43.19;100124.72;5052351;28;20481;-72
2023/03/25 02:57:12;;;;;;;3.72;0.90;;;;;;;18.70;43.14;100127.50;5052935;28;20040;-70
2023/03/25 02:59:40;;;;;;;3.15;1.05;;;;;;;18.68;43.49;100122.34;5053413;28;20481;-72
2023/03/25 03:02:10;;;;;;;2.30;0.90;;;;;;;18.66;43.13;100116.41;5052563;28;20033;-70
2023/03/25 03:04:52;;;;;;;2.83;0.90;;;;;;;18.65;43.31;100118.19;5052823;28;20143;-71
2023/03/25 03:07:42;;;;;;;4.32;1.00;;;;;;;18.67;43.21;100125.97;5053065;28;20112;-71
2023/03/25 03:10:25;;;;;;;3.22;1.00;;;;;;;18.66;43.30;100111.13;5053110;28;20036;-72
2023/03/25 03:13:21;;;;;;;3.53;1.10;;;;;;;18.66;43.31;100116.41;5052452;28;20032;-71
2023/03/25 03:15:50;;;;;;;4.72;1.20;;;;;;;18.65;43.09;100109.44;5052430;28;20048;-70
2023/03/25 03:18:44;;;;;;;5.03;1.05;;;;;;;18.65;43.25;100096.25;5052978;28;20362;-71
2023/03/25 03:21:16;;;;;;;;;;;;;;;18.69;43.38;100100.25;5050481;28;20486;-70
2023/03/25 03:24:13;;;;;;;4.00;1.20;;;;;;;18.69;43.56;100092.34;5050941;28;19916;-72
2023/03/25 03:27:22;;;;;;;4.53;1.10;;;;;;;18.65;43.68;100105.00;5051858;28;20232;-70
2023/03/25 03:29:54;;;;;;;3.63;1.20;;;;;;;18.65;43.24;100102.34;5051919;28;20037;-71
2023/03/25 03:32:28;;;;;;;3.83;1.15;;;;;;;18.65;43.24;100102.34;5052389;28;20106;-71
2023/03/25 03:35:06;;;;;;;;;;;;;;;18.66;43.16;100103.22;5053277;28;20295;-71
2023/03/25 03:37:36;;;;;;;3.10;1.10;;;;;;;18.65;43.30;100104.19;5052723;28;19974;-71
2023/03/25 03:40:08;;;;;;;4.28;1.20;;;;;;;18.64;43.41;100113.06;5051584;28;20028;-70
2023/03/25 03:42:40;;;;;;;5.47;1.10;;;;;;;18.64;43.34;100100.72;5051764;28;20032;-72
2023/03/25 03:45:16;;;;;;;3.88;1.00;;;;;;;18.61;43.24;100113.34;5052771;28;20033;-71
2023/03/25 03:47:50;;;;;;;3.75;1.10;;;;;;;18.62;43.31;100104.47;5049302;28;20024;-71
2023/03/25 03:50:30;;;;;;;4.75;0.90;;;;;;;18.59;43.33;100112.66;5052243;28;20485;-71
2023/03/25 03:53:16;;;;;;;4.22;1.08;;;;;;;18.61;43.31;100095.72;5051542;28;20089;-71
2023/03/25 03:56:02;;;;;;;4.70;0.95;;;;;;;18.57;43.21;100099.63;5051356;28;20036;-71
2023/03/25 03:58:36;;;;;;;4.75;1.30;;;;;;;18.56;43.32;100108.50;5051344;28;20033;-70
2023/03/25 04:01:05;;;;;;;;;;;;;;;18.62;43.31;100107.09;5051922;28;20112;-71
2023/03/25 04:03:41;;;;;;;3.67;0.95;;;;;;;18.60;43.03;100106.44;5050855;28;19916;-71
2023/03/25 04:06:25;;;;;;;3.15;1.10;;;;;;;18.61;43.12;100116.00;5050896;28;20043;-71
2023/03/25 04:08:57;;;;;;;4.75;1.17;;;;;;;18.59;43.41;100113.50;5051505;28;20036;-71
2023/03/25 04:11:30;;;;;;;2.75;0.90;;;;;;;18.58;43.29;100116.28;5050867;28;20111;-72
2023/03/25 04:13:59;;;;;;;4.60;1.15;;;;;;;18.54;43.28;100104.38;5049415;28;20544;-71
2023/03/25 04:16:24;;;;;;;5.00;1.02;;;;;;;18.56;43.15;100111.13;5051136;28;20036;-71
2023/03/25 04:18:52;;;;;;;2.95;0.90;;;;;;;18.56;43.24;100102.41;5050685;28;20099;-69
2023/03/25 04:21:18;;;;;;;4.65;1.10;;;;;;;18.57;43.12;100120.72;5051253;28;20043;-70
2023/03/25 04:23:44;;;;;;;3.63;1.05;;;;;;;18.54;43.16;100112.28;5051255;28;20497;-71
2023/03/25 04:26:12;;;;;;;3.13;0.95;;;;;;;18.54;43.15;100104.38;5050951;28;20090;-70
2023/03/25 04:28:40;;;;;;;4.90;0.93;;;;;;;18.54;43.08;100112.28;5050831;28;20028;-71
2023/03/25 04:31:14;;;;;;;3.97;1.10;;;;;;;18.51;43.01;100115.22;5051110;28;20132;-71
2023/03/25 04:33:41;;;;;;;3.90;0.90;;;;;;;18.54;42.96;100112.28;5050900;28;20067;-71
2023/03/25 04:36:06;;;;;;;4.47;1.20;;;;;;;18.50;43.02;100114.38;5050382;28;20743;-71
2023/03/25 04:38:32;;;;;;;3.75;1.00;;;;;;;18.52;43.11;100112.44;5051353;28;20035;-71
2023/03/25 04:40:57;;;;;;;4.45;0.98;;;;;;;18.48;43.13;100111.88;5050552;28;20033;-69
2023/03/25 04:43:22;;;;;;;3.83;1.10;;;;;;;18.52;43.07;100124.78;5050671;28;20033;-70
2023/03/25 04:45:52;;;;;;;3.30;1.05;;;;;;;18.49;42.98;100118.81;5050392;28;20447;-70
2023/03/25 04:48:24;;;;;;;2.85;1.05;;;;;;;18.50;43.07;100122.31;5050079;28;20547;-71
2023/03/25 04:50:50;;;;;;;4.55;1.10;;;;;;;18.51;43.01;100120.50;5050634;28;20080;-71
2023/03/25 04:53:16;;;;;;;2.95;0.88;;;;;;;18.49;42.97;100124.09;5050202;28;20067;-69
2023/03/25 04:55:46;;;;;;;2.95;0.80;;;;;;;18.46;43.14;100121.72;5050909;28;20520;-70
2023/03/25 04:58:14;;;;;;;4.05;1.15;;;;;;;18.45;42.86;100117.44;5052379;28;20542;-71
2023/03/25 05:00:40;;;;;;;4.53;1.00;;;;;;;18.46;43.08;100113.81;5054745;28;20402;-71
2023/03/25 05:03:05;;;;;;;3.35;0.90;;;;;;;18.48;43.29;100116.31;5054448;28;20039;-70
2023/03/25 05:05:31;;;;;;;2.33;0.80;;;;;;;18.48;43.17;100116.31;5054838;28;20060;-70
2023/03/25 05:07:57;;;;;;;4.70;1.02;;;;;;;18.49;43.17;100118.81;5054297;28;20273;-71
2023/03/25 05:10:25;;;;;;;3.88;0.95;;;;;;;18.45;43.11;100106.91;5054062;28;20500;-69
2023/03/25 05:12:59;;;;;;;3.63;0.95;;;;;;;18.47;43.30;100115.50;5054756;28;20040;-69
2023/03/25 05:15:25;;;;;;;2.92;0.80;;;;;;;18.45;43.28;100106.91;5054447;28;20032;-70
2023/03/25 05:17:51;;;;;;;3.92;0.80;;;;;;;18.47;43.39;100117.31;5054611;28;20032;-69
2023/03/25 05:20:16;;;;;;;2.15;0.70;;;;;;;18.45;43.12;100109.53;5052834;28;20139;-71
2023/03/25 05:22:42;;;;;;;3.63;0.90;;;;;;;18.44;42.99;100112.31;5044514;28;20033;-70
2023/03/25 05:25:09;;;;;;;3.03;0.90;;;;;;;18.46;42.92;100116.47;5053932;28;20047;-72
2023/03/25 05:27:35;;;;;;;3.65;0.95;;;;;;;18.44;43.04;100128.97;5054091;28;20148;-70
2023/03/25 05:30:01;;;;;;;4.60;1.15;;;;;;;18.43;43.00;100129.94;5054016;28;20561;-71
2023/03/25 05:32:39;;;;;;;4.05;1.13;;;;;;;18.44;43.06;100117.59;5053824;28;20127;-71
2023/03/25 05:35:05;;;;;;;3.38;1.00;;;;;;;18.46;43.10;100139.38;5054224;28;20064;-71
2023/03/25 05:37:31;;;;;;;3.22;0.90;;;;;;;18.42;42.80;100133.56;5054014;28;20064;-70
2023/03/25 05:39:56;;;;;;;2.83;0.80;;;;;;;18.42;42.95;100135.34;5054166;28;20128;-69
2023/03/25 05:42:22;;;;;;;3.35;1.00;;;;;;;18.41;42.79;100131.91;5054907;28;20036;-70
2023/03/25 05:44:51;;;;;;;4.22;1.27;;;;;;;18.43;42.94;100129.13;5053818;28;20036;-70
2023/03/25 05:47:19;;;;;;;2.78;1.10;;;;;;;18.40;43.02;100135.50;5053920;28;20051;-72
2023/03/25 05:49:45;;;;;;;3.97;1.17;;;;;;;18.39;42.84;100131.22;5053322;28;20094;-69
2023/03/25 05:52:10;;;;;;;3.67;0.90;;;;;;;18.41;43.10;100136.34;5053253;28;20151;-70
2023/03/25 05:54:40;;;;;;;3.47;0.80;;;;;;;18.40;42.89;100135.50;5053908;28;20120;-71
2023/03/25 05:57:05;;;;;;;3.40;1.38;;;;;;;18.41;42.92;100142.44;5053996;28;20346;-69
2023/03/25 05:59:32;;;;;;;3.28;1.45;;;;;;;18.40;42.87;100145.22;5054249;28;20495;-72
2023/03/25 06:01:57;;;;;;;4.18;1.08;;;;;;;18.37;42.70;100151.63;5053445;28;20079;-71
2023/03/25 06:04:23;;;;;;;3.97;1.05;;;;;;;18.39;42.96;100149.69;5052784;28;20033;-70
2023/03/25 06:06:49;;;;;;;4.22;1.10;;;;;;;18.39;42.93;100162.88;5053409;28;20564;-70
2023/03/25 06:09:16;;;;;;;3.95;1.10;;;;;;;18.36;43.05;100157.88;5052712;28;20033;-70
2023/03/25 06:11:42;;;;;;;4.00;1.10;;;;;;;18.37;43.29;100159.53;5053355;28;20061;-71
2023/03/25 06:14:08;;;;;;;5.88;1.15;;;;;;;18.39;43.25;100156.75;5068324;28;20056;-70
2023/03/25 06:16:34;;;;;;;3.70;1.00;;;;;;;18.40;43.37;100164.53;5052256;28;20032;-71
2023/03/25 06:19:00;;;;;;;3.72;0.80;;;;;;;18.42;43.43;100165.22;5053173;28;20056;-70
2023/03/25 06:21:33;;;;;;;2.85;0.93;;;;;;;18.44;43.55;100157.16;5053303;28;20035;-71
2023/03/25 06:24:00;;;;;;;2.75;0.70;;;;;;;18.44;43.56;100165.91;5053704;28;20028;-72
2023/03/25 06:26:26;;;;;;;3.47;0.80;;;;;;;18.51;43.45;100165.34;5053187;28;20083;-71
2023/03/25 06:28:51;;;;;;;2.15;0.80;;;;;;;18.51;43.65;100158.25;5052757;28;20481;-70
2023/03/25 06:31:21;;;;;;;3.92;0.80;;;;;;;18.51;43.50;100152.97;5051750;28;20127;-72
2023/03/25 06:33:48;;;;;;;3.42;0.90;;;;;;;18.58;43.42;100161.13;5052562;28;20407;-70
2023/03/25 06:36:17;;;;;;;2.78;0.90;;;;;;;18.57;43.45;100162.13;5053375;28;20040;-71
2023/03/25 06:38:44;;;;;;;4.78;0.95;;;;;;;18.58;43.53;100159.34;5067988;28;20473;-70
2023/03/25 06:41:10;;;;;;;2.78;0.80;;;;;;;18.62;43.14;100163.34;5053016;28;20738;-70
2023/03/25 06:43:35;;;;;;;4.57;1.05;;;;;;;18.65;43.22;100159.59;5052011;28;20052;-70
2023/03/25 06:46:01;;;;;;;3.47;1.00;;;;;;;18.66;43.01;100167.38;5052813;28;20044;-70
2023/03/25 06:48:26;;;;;;;3.08;0.90;;;;;;;18.70;43.20;100170.53;5052020;28;20449;-70
2023/03/25 06:50:52;;;;;;;4.53;1.10;;;;;;;18.73;43.22;100175.53;5053246;28;20033;-70
2023/03/25 06:53:17;;;;;;;4.43;1.20;;;;;;;18.73;43.06;100174.72;5052632;28;20037;-70
2023/03/25 06:55:43;;;;;;;2.53;0.77;;;;;;;18.77;43.07;100189.28;5052614;28;20040;-71
2023/03/25 06:58:09;;;;;;;4.05;1.02;;;;;;;18.74;43.07;100174.56;5052515;28;20395;-71
2023/03/25 07:00:35;;;;;;;4.40;0.90;;;;;;;18.81;42.91;100188.03;5042977;28;20115;-71
2023/03/25 07:03:01;;;;;;;2.33;0.80;;;;;;;18.80;42.97;100189.84;5051924;28;20103;-71
2023/03/25 07:05:27;;;;;;;3.25;0.77;;;;;;;18.82;42.69;100190.50;5050693;28;20025;-72
2023/03/25 07:07:53;;;;;;;3.00;0.90;;;;;;;18.82;42.99;100187.06;5052559;28;20044;-71
2023/03/25 07:10:18;;;;;;;3.70;0.90;;;;;;;18.83;42.76;100186.06;5052618;28;20037;-70
2023/03/25 07:12:43;;;;;;;3.47;1.00;;;;;;;18.84;42.76;100193.03;5051754;28;20494;-72
2023/03/25 07:15:09;;;;;;;4.95;0.95;;;;;;;18.84;42.86;100185.94;5051975;28;20036;-70
2023/03/25 07:17:34;;;;;;;3.80;0.90;;;;;;;18.85;42.97;100177.06;5052265;28;20139;-70
2023/03/25 07:20:00;;;;;;;4.80;1.00;;;;;;;18.84;42.76;100180.66;5050719;28;20409;-72
2023/03/25 07:22:25;;;;;;;3.60;0.80;;;;;;;18.87;42.79;100169.00;5051281;28;20025;-72
2023/03/25 07:24:51;;;;;;;5.32;1.50;;;;;;;18.88;42.74;100181.19;5052174;28;20043;-70
2023/03/25 07:27:17;;;;;;;3.70;0.80;;;;;;;18.91;42.75;100190.66;5051540;28;20036;-71
2023/03/25 07:29:42;;;;;;;5.32;0.93;;;;;;;18.89;42.85;100192.59;5051944;28;20477;-70
2023/03/25 07:32:08;;;;;;;3.78;0.88;;;;;;;18.91;42.71;100188.00;5051646;28;20039;-71
2023/03/25 07:34:33;;;;;;;4.25;1.13;;;;;;;18.88;42.71;100197.03;5051581;28;20083;-69
2023/03/25 07:36:58;;;;;;;3.92;1.02;;;;;;;18.91;42.85;100195.94;5052210;28;20124;-72
2023/03/25 07:39:24;;;;;;;5.43;1.00;;;;;;;18.92;42.59;100213.44;5052300;28;20111;-72
2023/03/25 07:41:53;;;;;;;5.95;1.10;;;;;;;18.89;42.51;100197.88;5050756;28;20425;-71
2023/03/25 07:44:21;;;;;;;4.10;1.20;;;;;;;18.90;42.79;100204.81;5051185;28;20448;-71
2023/03/25 07:46:48;;;;;;;4.13;1.30;;;;;;;18.87;42.66;100205.09;5041910;28;20379;-72
2023/03/25 07:49:15;;;;;;;5.82;1.45;;;;;;;18.81;43.04;100202.03;5051821;28;20048;-71
2023/03/25 07:51:40;;;;;;;5.93;1.17;;;;;;;18.89;43.02;100213.72;5051807;28;20066;-69
2023/03/25 07:54:06;;;;;;;4.50;1.13;;;;;;;18.82;43.26;100206.34;5051031;28;20060;-70
2023/03/25 07:56:31;;;;;;;5.88;1.10;;;;;;;18.89;43.40;100204.00;5051177;28;20488;-70
2023/03/25 07:58:56;;;;;;;3.47;1.20;;;;;;;18.89;43.59;100211.91;5066639;28;20029;-71
2023/03/25 08:01:22;;;;;;;5.50;1.20;;;;;;;18.89;43.75;100209.28;5051620;28;20086;-71
2023/03/25 08:03:47;;;;;;;6.38;1.35;;;;;;;18.91;43.53;100215.22;5050772;28;20123;-72
2023/03/25 08:06:12;;;;;;;5.95;1.40;;;;;;;18.91;43.66;100217.06;5051170;28;20435;-70
2023/03/25 08:08:38;;;;;;;5.70;1.00;;;;;;;18.91;43.75;100217.88;5051370;28;20043;-70
2023/03/25 08:11:04;;;;;;;6.28;1.40;;;;;;;18.89;43.71;100209.28;5050247;28;20901;-71
2023/03/25 08:13:29;;;;;;;5.72;1.25;;;;;;;18.89;43.79;100226.94;5049514;28;20138;-72
2023/03/25 08:15:55;;;;;;;4.32;1.08;;;;;;;18.89;43.76;100225.13;5050254;28;20029;-70
2023/03/25 08:18:21;;;;;;;5.53;1.40;;;;;;;18.92;43.74;100231.94;5051178;28;20481;-70
2023/03/25 08:20:49;;;;;;;7.22;1.30;;;;;;;18.89;43.79;100226.94;5051246;28;20068;-70
2023/03/25 08:23:17;;;;;;;5.07;1.33;;;;;;;18.90;44.10;100234.72;5051554;28;20142;-70
2023/03/25 08:25:43;;;;;;;4.30;1.00;;;;;;;18.90;44.02;100233.84;5050806;28;20123;-71
2023/03/25 08:28:08;;;;;;;5.22;1.20;;;;;;;18.93;44.09;100246.78;5051424;28;20148;-72
2023/03/25 08:30:37;;;;;;;5.05;1.10;;;;;;;18.92;44.28;100256.50;5050695;28;21425;-70
2023/03/25 08:33:07;;;;;;;4.78;1.27;;;;;;;18.93;44.20;100250.25;5050244;28;20047;-70
2023/03/25 08:35:34;;;;;;;4.85;1.25;;;;;;;18.92;44.39;100247.75;5050189;28;20503;-71
2023/03/25 08:38:00;;;;;;;5.95;1.45;;;;;;;18.89;44.46;100245.41;5052330;28;20048;-74
2023/03/25 08:40:26;;;;;;;5.63;1.13;;;;;;;18.94;44.31;100254.56;5050918;28;20452;-71
2023/03/25 08:42:52;;;;;;;4.07;1.15;;;;;;;18.92;44.62;100247.75;5050747;28;20102;-71
2023/03/25 08:45:17;;;;;;;4.63;1.52;;;;;;;18.94;44.51;100248.44;5049858;28;20037;-72
2023/03/25 08:47:44;;;;;;;4.15;1.27;;;;;;;18.98;44.25;100260.41;5049815;28;20470;-70
2023/03/25 08:50:10;;;;;;;5.68;1.30;;;;;;;18.97;44.53;100256.09;5051280;28;20027;-70
2023/03/25 08:52:35;;;;;;;3.35;0.98;;;;;;;18.95;44.53;100253.59;5049593;28;20381;-70
2023/03/25 08:55:01;;;;;;;4.28;1.10;;;;;;;18.94;44.40;100251.91;5049937;28;20063;-72
2023/03/25 08:57:26;;;;;;;8.40;1.83;;;;;;;18.95;44.40;100256.22;5048718;28;20028;-72
2023/03/25 08:59:51;;;;;;;4.75;1.00;;;;;;;18.96;44.46;100257.03;5049915;28;20025;-72
2023/03/25 09:02:17;;;;;;;9.32;1.75;;;;;;;18.93;44.57;100252.91;5050763;28;20029;-69
2023/03/25 09:04:42;;;;;;;6.32;1.40;;;;;;;18.95;44.42;100248.31;5049983;28;20032;-72
2023/03/25 09:07:09;;;;;;;5.30;1.38;;;;;;;18.97;44.63;100253.44;5050412;28;20056;-71
2023/03/25 09:09:38;;;;;;;6.38;1.40;;;;;;;18.95;44.44;100250.94;5054187;28;20033;-72
2023/03/25 09:12:04;;;;;;;4.82;1.40;;;;;;;18.99;44.62;100254.97;5056786;28;20039;-70
2023/03/25 09:14:30;;;;;;;6.47;1.50;;;;;;;18.96;44.68;100247.34;5057350;28;20025;-71
2023/03/25 09:16:55;;;;;;;7.68;1.45;;;;;;;18.98;44.69;100250.66;5061219;28;20039;-70
2023/03/25 09:19:20;;;;;;;5.10;1.92;;;;;;;18.95;44.77;100245.66;5059926;28;20053;-74
2023/03/25 09:21:46;;;;;;;7.47;1.52;;;;;;;18.99;44.52;100244.41;5050267;28;20544;-74
2023/03/25 09:24:12;;;;;;;5.47;1.30;;;;;;;19.01;44.49;100242.44;5050163;28;20051;-73
2023/03/25 09:26:38;;;;;;;5.65;1.38;;;;;;;18.99;44.59;100254.13;5050074;28;20032;-74
2023/03/25 09:29:03;;;;;;;6.93;1.80;;;;;;;18.99;44.67;100246.19;5050152;28;20037;-73
2023/03/25 09:31:29;;;;;;;8.00;1.67;;;;;;;18.98;44.48;100244.56;5049529;28;20037;-74
2023/03/25 09:33:55;;;;;;;6.95;1.33;;;;;;;19.05;44.64;100256.19;5048601;28;20075;-70
2023/03/25 09:36:20;;;;;;;5.25;1.40;;;;;;;19.11;44.47;100254.78;5049043;28;20040;-69
2023/03/25 09:38:46;;;;;;;5.85;1.63;;;;;;;19.20;44.27;100253.88;5050097;28;20095;-69
2023/03/25 09:41:28;;;;;;;7.07;1.52;;;;;;;19.20;44.56;100259.16;5049537;28;20025;-73
2023/03/25 09:44:00;;;;;;;5.10;1.30;;;;;;;19.15;44.48;100269.34;5049198;28;20844;-71
2023/03/25 09:46:26;;;;;;;4.18;1.30;;;;;;;19.11;44.28;100260.06;5052957;28;20033;-72
2023/03/25 09:48:53;;;;;;;7.18;1.90;;;;;;;19.11;44.40;100266.19;5052315;28;20029;-73
2023/03/25 09:51:29;;;;;;;7.43;1.83;;;;;;;19.08;44.29;100263.00;5053782;28;20033;-71
2023/03/25 09:54:03;;;;;;;6.25;1.73;;;;;;;19.11;44.33;100268.81;5053024;28;20044;-73
2023/03/25 09:56:33;;;;;;;6.20;1.50;;;;;;;19.11;44.16;100263.53;5053509;28;20507;-69
2023/03/25 09:59:09;;;;;;;7.63;1.98;;;;;;;19.06;44.16;100267.56;5052409;28;20516;-72
2023/03/25 10:01:49;;;;;;;6.63;2.00;;;;;;;19.09;44.34;100281.34;5054231;28;20904;-72
2023/03/25 10:04:20;;;;;;;9.00;2.00;;;;;;;19.09;44.50;100267.28;5053592;28;20227;-72
2023/03/25 10:07:13;;;;;;;7.57;1.88;;;;;;;19.07;44.23;100267.44;5053569;28;20377;-72
2023/03/25 10:09:54;;;;;;;5.47;1.88;;;;;;;19.05;44.17;100256.19;5053131;28;20155;-72
2023/03/25 10:12:30;;;;;;;6.22;1.70;;;;;;;19.05;44.24;100266.75;5053679;28;20048;-72
2023/03/25 10:15:43;;;;;;;7.68;1.88;;;;;;;19.08;44.35;100271.75;5053531;28;20557;-71
2023/03/25 10:18:24;;;;;;;5.53;1.55;;;;;;;19.10;44.13;100267.13;5037888;28;20075;-71
2023/03/25 10:21:15;;;;;;;7.72;1.80;;;;;;;19.09;44.26;100272.56;5052951;28;20518;-72
2023/03/25 10:23:50;;;;;;;7.10;1.80;;;;;;;19.06;43.99;100259.66;5053345;28;20512;-71
2023/03/25 10:26:24;;;;;;;8.73;2.30;;;;;;;19.08;44.07;100266.47;5053355;28;20028;-72
2023/03/25 10:28:57;;;;;;;5.70;1.50;;;;;;;19.08;44.25;100260.34;5053522;28;20079;-73
2023/03/25 10:31:26;;;;;;;9.63;2.00;;;;;;;19.06;44.09;100260.50;5052905;28;20055;-71
2023/03/25 10:33:56;;;;;;;7.20;1.70;;;;;;;19.00;44.05;100259.25;5052845;28;20032;-70
2023/03/25 10:36:32;;;;;;;6.20;1.70;;;;;;;19.06;43.79;100275.50;5052626;28;20037;-72
2023/03/25 10:39:00;;;;;;;7.75;1.73;;;;;;;19.07;44.02;100258.69;5051953;28;20522;-66
2023/03/25 10:41:34;;;;;;;8.60;1.73;;;;;;;19.09;43.86;100277.84;5052760;28;20059;-68
2023/03/25 10:43:59;;;;;;;10.60;2.00;;;;;;;19.07;43.99;100263.97;5052421;28;20039;-71
2023/03/25 10:46:55;;;;;;;7.28;1.70;;;;;;;19.09;43.99;100268.13;5052538;28;20044;-73
2023/03/25 10:49:24;;;;;;;6.68;1.52;;;;;;;19.07;43.86;100269.25;5053323;28;20040;-72
2023/03/25 10:51:56;;;;;;;10.35;2.13;;;;;;;19.03;43.87;100263.44;5052302;28;20046;-74
2023/03/25 10:54:26;;;;;;;9.35;2.00;;;;;;;19.06;43.94;100271.06;5052598;28;20078;-72
2023/03/25 10:56:55;;;;;;;7.05;1.60;;;;;;;19.06;44.10;100281.63;5052125;28;20033;-71
2023/03/25 10:59:29;;;;;;;4.60;1.52;;;;;;;19.12;43.90;100282.84;5052879;28;20090;-69
2023/03/25 11:01:56;;;;;;;6.07;1.50;;;;;;;19.09;44.09;100252.28;5052813;28;20033;-70
2023/03/25 11:04:29;;;;;;;5.50;1.52;;;;;;;19.11;43.90;100268.81;5052179;28;20132;-71
2023/03/25 11:06:56;;;;;;;6.13;1.88;;;;;;;19.09;43.86;100264.63;5052390;28;20029;-72
2023/03/25 11:09:29;;;;;;;7.15;1.67;;;;;;;19.09;44.01;100276.06;5052030;28;20028;-71
2023/03/25 11:11:58;;;;;;;7.97;1.58;;;;;;;19.11;44.16;100271.47;5050554;28;20412;-71
2023/03/25 11:14:26;;;;;;;8.68;1.75;;;;;;;19.11;44.01;100287.31;5051680;28;20032;-72
2023/03/25 11:16:59;;;;;;;9.30;1.85;;;;;;;19.10;43.77;100290.09;5052160;28;20032;-73
2023/03/25 11:19:27;;;;;;;9.03;2.17;;;;;;;19.15;44.28;100287.84;5052037;28;20040;-74
2023/03/25 11:22:01;;;;;;;10.82;3.28;;;;;;;19.13;45.27;100290.63;5050430;28;20056;-73
2023/03/25 11:24:31;;;;;;;7.13;2.03;;;;;;;19.14;45.60;100296.75;5052465;28;20044;-70
2023/03/25 11:26:57;;;;;;;8.52;2.47;;;;;;;19.12;45.91;100281.06;5052641;28;20393;-69
2023/03/25 11:29:26;;;;;;;10.98;2.47;;;;;;;19.13;46.16;100289.81;5052086;28;20035;-72
2023/03/25 11:31:57;;;;;;;10.98;2.78;;;;;;;19.16;45.95;100298.25;5042229;28;20032;-71
2023/03/25 11:34:23;;;;;;;10.75;2.75;;;;;;;19.18;45.86;100298.97;5050569;28;20039;-71
2023/03/25 11:36:55;;;;;;;11.05;2.55;;;;;;;19.20;45.85;100290.88;5052516;28;20032;-71
2023/03/25 11:39:38;;;;;;;9.95;2.50;;;;;;;19.17;45.77;100296.47;5051997;28;20147;-71